sensor_id;sensor_type;location;lat;lon;timestamp;P1;durP1;ratioP1;P2;durP2;ratioP2
22129;SDS011;11231;50.746;4.272;2023-06-19T00:02:17;10.90;;;4.57;;
22129;SDS011;11231;50.746;4.272;2023-06-19T00:04:43;8.57;;;4.10;;
22129;SDS011;11231;50.746;4.272;2023-06-19T00:07:09;9.17;;;3.77;;
22129;SDS011;11231;50.746;4.272;2023-06-19T00:09:34;8.30;;;4.23;;
22129;SDS011;11231;50.746;4.272;2023-06-19T00:12:00;8.43;;;4.43;;
22129;SDS011;11231;50.746;4.272;2023-06-19T00:14:26;10.60;;;3.90;;
22129;SDS011;11231;50.746;4.272;2023-06-19T00:16:52;10.33;;;4.50;;
22129;SDS011;11231;50.746;4.272;2023-06-19T00:19:18;11.60;;;4.40;;
22129;SDS011;11231;50.746;4.272;2023-06-19T00:21:43;10.47;;;4.53;;
22129;SDS011;11231;50.746;4.272;2023-06-19T00:24:09;11.87;;;4.00;;
22129;SDS011;11231;50.746;4.272;2023-06-19T00:26:36;8.87;;;4.30;;
22129;SDS011;11231;50.746;4.272;2023-06-19T00:29:01;10.97;;;4.37;;
22129;SDS011;11231;50.746;4.272;2023-06-19T00:31:27;9.03;;;4.13;;
22129;SDS011;11231;50.746;4.272;2023-06-19T00:33:53;8.37;;;3.90;;
22129;SDS011;11231;50.746;4.272;2023-06-19T00:36:19;9.23;;;4.20;;
22129;SDS011;11231;50.746;4.272;2023-06-19T00:38:46;9.97;;;4.00;;
22129;SDS011;11231;50.746;4.272;2023-06-19T00:41:13;12.70;;;4.87;;
22129;SDS011;11231;50.746;4.272;2023-06-19T00:43:41;9.03;;;4.00;;
22129;SDS011;11231;50.746;4.272;2023-06-19T00:46:07;9.10;;;4.07;;
22129;SDS011;11231;50.746;4.272;2023-06-19T00:48:33;11.27;;;3.97;;
22129;SDS011;11231;50.746;4.272;2023-06-19T00:50:59;9.37;;;4.20;;
22129;SDS011;11231;50.746;4.272;2023-06-19T00:53:25;11.43;;;3.93;;
22129;SDS011;11231;50.746;4.272;2023-06-19T00:55:52;9.87;;;4.40;;
22129;SDS011;11231;50.746;4.272;2023-06-19T00:58:20;8.93;;;4.17;;
22129;SDS011;11231;50.746;4.272;2023-06-19T01:00:46;8.93;;;3.90;;
22129;SDS011;11231;50.746;4.272;2023-06-19T01:03:13;9.33;;;4.23;;
22129;SDS011;11231;50.746;4.272;2023-06-19T01:05:39;8.47;;;4.30;;
22129;SDS011;11231;50.746;4.272;2023-06-19T01:10:51;13.40;;;4.40;;
22129;SDS011;11231;50.746;4.272;2023-06-19T01:16:06;9.00;;;4.37;;
22129;SDS011;11231;50.746;4.272;2023-06-19T01:18:33;9.60;;;4.97;;
22129;SDS011;11231;50.746;4.272;2023-06-19T01:21:12;10.20;;;4.70;;
22129;SDS011;11231;50.746;4.272;2023-06-19T01:23:41;10.83;;;5.10;;
22129;SDS011;11231;50.746;4.272;2023-06-19T01:26:07;13.20;;;5.10;;
22129;SDS011;11231;50.746;4.272;2023-06-19T01:28:35;10.23;;;5.07;;
22129;SDS011;11231;50.746;4.272;2023-06-19T01:31:03;14.40;;;4.63;;
22129;SDS011;11231;50.746;4.272;2023-06-19T01:33:39;12.00;;;5.27;;
22129;SDS011;11231;50.746;4.272;2023-06-19T01:36:07;10.07;;;5.13;;
22129;SDS011;11231;50.746;4.272;2023-06-19T01:38:34;11.07;;;5.33;;
22129;SDS011;11231;50.746;4.272;2023-06-19T01:41:01;9.57;;;5.27;;
22129;SDS011;11231;50.746;4.272;2023-06-19T01:43:29;9.50;;;5.50;;
22129;SDS011;11231;50.746;4.272;2023-06-19T01:45:57;11.27;;;5.60;;
22129;SDS011;11231;50.746;4.272;2023-06-19T01:48:23;10.10;;;5.70;;
22129;SDS011;11231;50.746;4.272;2023-06-19T01:50:49;11.50;;;5.63;;
22129;SDS011;11231;50.746;4.272;2023-06-19T01:53:16;9.50;;;5.90;;
22129;SDS011;11231;50.746;4.272;2023-06-19T01:55:42;9.83;;;5.43;;
22129;SDS011;11231;50.746;4.272;2023-06-19T01:58:07;11.63;;;5.27;;
22129;SDS011;11231;50.746;4.272;2023-06-19T02:00:33;12.80;;;5.40;;
22129;SDS011;11231;50.746;4.272;2023-06-19T02:03:02;10.77;;;5.67;;
22129;SDS011;11231;50.746;4.272;2023-06-19T02:05:29;11.77;;;6.17;;
22129;SDS011;11231;50.746;4.272;2023-06-19T02:07:55;13.27;;;6.40;;
22129;SDS011;11231;50.746;4.272;2023-06-19T02:10:21;10.30;;;5.93;;
22129;SDS011;11231;50.746;4.272;2023-06-19T02:12:47;15.60;;;6.70;;
22129;SDS011;11231;50.746;4.272;2023-06-19T02:15:12;11.83;;;6.33;;
22129;SDS011;11231;50.746;4.272;2023-06-19T02:17:38;17.33;;;7.00;;
22129;SDS011;11231;50.746;4.272;2023-06-19T02:20:04;10.50;;;6.97;;
22129;SDS011;11231;50.746;4.272;2023-06-19T02:22:34;11.80;;;7.47;;
22129;SDS011;11231;50.746;4.272;2023-06-19T02:24:59;12.83;;;7.90;;
22129;SDS011;11231;50.746;4.272;2023-06-19T02:27:25;15.50;;;7.70;;
22129;SDS011;11231;50.746;4.272;2023-06-19T02:29:51;11.97;;;7.60;;
22129;SDS011;11231;50.746;4.272;2023-06-19T02:32:18;14.23;;;8.77;;
22129;SDS011;11231;50.746;4.272;2023-06-19T02:34:45;15.87;;;9.53;;
22129;SDS011;11231;50.746;4.272;2023-06-19T02:37:10;15.63;;;9.40;;
22129;SDS011;11231;50.746;4.272;2023-06-19T02:39:36;14.03;;;9.07;;
22129;SDS011;11231;50.746;4.272;2023-06-19T02:42:02;17.30;;;9.37;;
22129;SDS011;11231;50.746;4.272;2023-06-19T02:44:28;15.70;;;9.77;;
22129;SDS011;11231;50.746;4.272;2023-06-19T02:46:53;17.57;;;8.67;;
22129;SDS011;11231;50.746;4.272;2023-06-19T02:49:19;13.13;;;8.93;;
22129;SDS011;11231;50.746;4.272;2023-06-19T02:51:45;17.23;;;9.20;;
22129;SDS011;11231;50.746;4.272;2023-06-19T02:54:11;15.70;;;10.20;;
22129;SDS011;11231;50.746;4.272;2023-06-19T02:56:37;15.90;;;9.90;;
22129;SDS011;11231;50.746;4.272;2023-06-19T02:59:03;16.07;;;9.77;;
22129;SDS011;11231;50.746;4.272;2023-06-19T03:01:29;18.13;;;10.00;;
22129;SDS011;11231;50.746;4.272;2023-06-19T03:03:55;15.43;;;10.17;;
22129;SDS011;11231;50.746;4.272;2023-06-19T03:06:21;15.67;;;8.83;;
22129;SDS011;11231;50.746;4.272;2023-06-19T03:08:47;14.43;;;9.47;;
22129;SDS011;11231;50.746;4.272;2023-06-19T03:11:12;15.57;;;9.47;;
22129;SDS011;11231;50.746;4.272;2023-06-19T03:13:45;12.93;;;8.80;;
22129;SDS011;11231;50.746;4.272;2023-06-19T03:16:17;13.77;;;7.23;;
22129;SDS011;11231;50.746;4.272;2023-06-19T03:18:44;13.27;;;6.80;;
22129;SDS011;11231;50.746;4.272;2023-06-19T03:21:10;10.67;;;6.10;;
22129;SDS011;11231;50.746;4.272;2023-06-19T03:23:37;11.30;;;6.47;;
22129;SDS011;11231;50.746;4.272;2023-06-19T03:26:03;11.43;;;6.60;;
22129;SDS011;11231;50.746;4.272;2023-06-19T03:28:30;11.87;;;6.23;;
22129;SDS011;11231;50.746;4.272;2023-06-19T03:30:57;12.90;;;7.37;;
22129;SDS011;11231;50.746;4.272;2023-06-19T03:33:23;14.13;;;7.17;;
22129;SDS011;11231;50.746;4.272;2023-06-19T03:35:49;11.37;;;6.40;;
22129;SDS011;11231;50.746;4.272;2023-06-19T03:38:29;13.67;;;7.20;;
22129;SDS011;11231;50.746;4.272;2023-06-19T03:40:55;15.23;;;7.57;;
22129;SDS011;11231;50.746;4.272;2023-06-19T03:43:21;14.53;;;8.43;;
22129;SDS011;11231;50.746;4.272;2023-06-19T03:45:47;13.47;;;7.57;;
22129;SDS011;11231;50.746;4.272;2023-06-19T03:48:13;15.13;;;8.63;;
22129;SDS011;11231;50.746;4.272;2023-06-19T03:50:38;14.67;;;7.93;;
22129;SDS011;11231;50.746;4.272;2023-06-19T03:53:06;13.83;;;8.27;;
22129;SDS011;11231;50.746;4.272;2023-06-19T03:55:32;15.03;;;8.63;;
22129;SDS011;11231;50.746;4.272;2023-06-19T03:57:57;15.30;;;8.63;;
22129;SDS011;11231;50.746;4.272;2023-06-19T04:00:23;15.83;;;8.67;;
22129;SDS011;11231;50.746;4.272;2023-06-19T04:02:49;15.13;;;9.80;;
22129;SDS011;11231;50.746;4.272;2023-06-19T04:05:15;17.40;;;9.77;;
22129;SDS011;11231;50.746;4.272;2023-06-19T04:07:41;13.70;;;9.73;;
22129;SDS011;11231;50.746;4.272;2023-06-19T04:10:07;15.33;;;9.17;;
22129;SDS011;11231;50.746;4.272;2023-06-19T04:12:33;15.57;;;9.63;;
22129;SDS011;11231;50.746;4.272;2023-06-19T04:14:59;16.10;;;10.37;;
22129;SDS011;11231;50.746;4.272;2023-06-19T04:17:25;15.57;;;10.00;;
22129;SDS011;11231;50.746;4.272;2023-06-19T04:19:51;18.47;;;10.50;;
22129;SDS011;11231;50.746;4.272;2023-06-19T04:22:18;14.83;;;10.03;;
22129;SDS011;11231;50.746;4.272;2023-06-19T04:24:44;17.23;;;10.60;;
22129;SDS011;11231;50.746;4.272;2023-06-19T04:27:10;17.47;;;10.07;;
22129;SDS011;11231;50.746;4.272;2023-06-19T04:29:36;19.00;;;10.63;;
22129;SDS011;11231;50.746;4.272;2023-06-19T04:32:02;18.30;;;10.17;;
22129;SDS011;11231;50.746;4.272;2023-06-19T04:34:36;15.43;;;9.60;;
22129;SDS011;11231;50.746;4.272;2023-06-19T04:37:03;13.30;;;8.77;;
22129;SDS011;11231;50.746;4.272;2023-06-19T04:39:29;17.47;;;8.13;;
22129;SDS011;11231;50.746;4.272;2023-06-19T04:41:55;13.90;;;8.43;;
22129;SDS011;11231;50.746;4.272;2023-06-19T04:44:20;16.17;;;7.60;;
22129;SDS011;11231;50.746;4.272;2023-06-19T04:46:47;15.13;;;8.57;;
22129;SDS011;11231;50.746;4.272;2023-06-19T04:49:13;11.67;;;7.10;;
22129;SDS011;11231;50.746;4.272;2023-06-19T04:51:39;13.67;;;7.63;;
22129;SDS011;11231;50.746;4.272;2023-06-19T04:54:06;14.67;;;7.87;;
22129;SDS011;11231;50.746;4.272;2023-06-19T04:56:31;12.93;;;7.40;;
22129;SDS011;11231;50.746;4.272;2023-06-19T04:58:57;13.93;;;7.57;;
22129;SDS011;11231;50.746;4.272;2023-06-19T05:01:25;17.00;;;8.48;;
22129;SDS011;11231;50.746;4.272;2023-06-19T05:03:55;12.40;;;7.37;;
22129;SDS011;11231;50.746;4.272;2023-06-19T05:06:24;13.15;;;6.95;;
22129;SDS011;11231;50.746;4.272;2023-06-19T05:08:51;13.43;;;7.50;;
22129;SDS011;11231;50.746;4.272;2023-06-19T05:11:17;13.52;;;8.10;;
22129;SDS011;11231;50.746;4.272;2023-06-19T05:13:43;14.32;;;7.70;;
22129;SDS011;11231;50.746;4.272;2023-06-19T05:16:09;12.50;;;7.22;;
22129;SDS011;11231;50.746;4.272;2023-06-19T05:18:36;13.50;;;8.00;;
22129;SDS011;11231;50.746;4.272;2023-06-19T05:21:02;11.45;;;7.35;;
22129;SDS011;11231;50.746;4.272;2023-06-19T05:23:27;13.60;;;8.52;;
22129;SDS011;11231;50.746;4.272;2023-06-19T05:25:53;16.50;;;9.40;;
22129;SDS011;11231;50.746;4.272;2023-06-19T05:28:19;14.52;;;9.40;;
22129;SDS011;11231;50.746;4.272;2023-06-19T05:30:44;14.52;;;9.15;;
22129;SDS011;11231;50.746;4.272;2023-06-19T05:33:10;16.03;;;9.90;;
22129;SDS011;11231;50.746;4.272;2023-06-19T05:35:41;14.67;;;9.70;;
22129;SDS011;11231;50.746;4.272;2023-06-19T05:38:08;18.00;;;10.80;;
22129;SDS011;11231;50.746;4.272;2023-06-19T05:40:34;15.10;;;10.70;;
22129;SDS011;11231;50.746;4.272;2023-06-19T05:43:00;16.33;;;11.03;;
22129;SDS011;11231;50.746;4.272;2023-06-19T05:45:26;17.17;;;10.30;;
22129;SDS011;11231;50.746;4.272;2023-06-19T05:47:52;18.00;;;10.87;;
22129;SDS011;11231;50.746;4.272;2023-06-19T05:50:17;19.97;;;11.27;;
22129;SDS011;11231;50.746;4.272;2023-06-19T05:52:43;18.23;;;11.87;;
22129;SDS011;11231;50.746;4.272;2023-06-19T05:55:09;19.70;;;11.70;;
22129;SDS011;11231;50.746;4.272;2023-06-19T05:57:35;19.47;;;12.37;;
22129;SDS011;11231;50.746;4.272;2023-06-19T06:00:01;19.50;;;13.07;;
22129;SDS011;11231;50.746;4.272;2023-06-19T06:02:37;20.63;;;14.00;;
22129;SDS011;11231;50.746;4.272;2023-06-19T06:05:03;21.53;;;15.10;;
22129;SDS011;11231;50.746;4.272;2023-06-19T06:07:29;23.07;;;15.37;;
22129;SDS011;11231;50.746;4.272;2023-06-19T06:09:55;24.57;;;15.00;;
22129;SDS011;11231;50.746;4.272;2023-06-19T06:12:21;24.93;;;16.33;;
22129;SDS011;11231;50.746;4.272;2023-06-19T06:14:46;23.60;;;16.37;;
22129;SDS011;11231;50.746;4.272;2023-06-19T06:17:12;24.23;;;15.87;;
22129;SDS011;11231;50.746;4.272;2023-06-19T06:19:38;20.67;;;14.23;;
22129;SDS011;11231;50.746;4.272;2023-06-19T06:22:04;21.33;;;13.20;;
22129;SDS011;11231;50.746;4.272;2023-06-19T06:24:30;19.87;;;12.60;;
22129;SDS011;11231;50.746;4.272;2023-06-19T06:26:55;16.47;;;12.43;;
22129;SDS011;11231;50.746;4.272;2023-06-19T06:29:21;19.50;;;12.70;;
22129;SDS011;11231;50.746;4.272;2023-06-19T06:31:47;20.63;;;12.53;;
22129;SDS011;11231;50.746;4.272;2023-06-19T06:34:13;17.63;;;12.47;;
22129;SDS011;11231;50.746;4.272;2023-06-19T06:36:38;21.10;;;12.40;;
22129;SDS011;11231;50.746;4.272;2023-06-19T06:39:04;21.63;;;12.60;;
22129;SDS011;11231;50.746;4.272;2023-06-19T06:41:31;17.27;;;12.37;;
22129;SDS011;11231;50.746;4.272;2023-06-19T06:43:57;18.23;;;12.73;;
22129;SDS011;11231;50.746;4.272;2023-06-19T06:46:22;20.90;;;12.73;;
22129;SDS011;11231;50.746;4.272;2023-06-19T06:48:49;17.80;;;11.67;;
22129;SDS011;11231;50.746;4.272;2023-06-19T06:51:15;17.63;;;11.93;;
22129;SDS011;11231;50.746;4.272;2023-06-19T06:53:40;18.93;;;13.00;;
22129;SDS011;11231;50.746;4.272;2023-06-19T06:56:06;17.93;;;11.20;;
22129;SDS011;11231;50.746;4.272;2023-06-19T06:58:32;17.87;;;10.57;;
22129;SDS011;11231;50.746;4.272;2023-06-19T07:00:57;14.30;;;9.48;;
22129;SDS011;11231;50.746;4.272;2023-06-19T07:03:23;14.63;;;9.00;;
22129;SDS011;11231;50.746;4.272;2023-06-19T07:05:49;15.40;;;9.27;;
22129;SDS011;11231;50.746;4.272;2023-06-19T07:08:15;15.02;;;9.32;;
22129;SDS011;11231;50.746;4.272;2023-06-19T07:10:40;14.65;;;8.68;;
22129;SDS011;11231;50.746;4.272;2023-06-19T07:13:06;14.43;;;8.40;;
22129;SDS011;11231;50.746;4.272;2023-06-19T07:15:32;17.02;;;9.77;;
22129;SDS011;11231;50.746;4.272;2023-06-19T07:17:57;13.77;;;8.70;;
22129;SDS011;11231;50.746;4.272;2023-06-19T07:20:23;16.95;;;9.25;;
22129;SDS011;11231;50.746;4.272;2023-06-19T07:22:50;14.15;;;9.23;;
22129;SDS011;11231;50.746;4.272;2023-06-19T07:25:17;17.40;;;9.93;;
22129;SDS011;11231;50.746;4.272;2023-06-19T07:27:43;17.98;;;9.73;;
22129;SDS011;11231;50.746;4.272;2023-06-19T07:30:09;16.52;;;9.45;;
22129;SDS011;11231;50.746;4.272;2023-06-19T07:32:36;15.43;;;9.63;;
22129;SDS011;11231;50.746;4.272;2023-06-19T07:35:02;17.63;;;10.15;;
22129;SDS011;11231;50.746;4.272;2023-06-19T07:37:29;14.25;;;9.52;;
22129;SDS011;11231;50.746;4.272;2023-06-19T07:39:54;21.23;;;9.90;;
22129;SDS011;11231;50.746;4.272;2023-06-19T07:42:21;19.15;;;9.18;;
22129;SDS011;11231;50.746;4.272;2023-06-19T07:44:46;16.67;;;9.40;;
22129;SDS011;11231;50.746;4.272;2023-06-19T07:47:12;16.13;;;9.23;;
22129;SDS011;11231;50.746;4.272;2023-06-19T07:49:39;13.70;;;8.77;;
22129;SDS011;11231;50.746;4.272;2023-06-19T07:52:05;17.27;;;9.40;;
22129;SDS011;11231;50.746;4.272;2023-06-19T07:54:31;14.27;;;8.55;;
22129;SDS011;11231;50.746;4.272;2023-06-19T07:56:58;15.35;;;9.07;;
22129;SDS011;11231;50.746;4.272;2023-06-19T07:59:24;14.10;;;7.88;;
22129;SDS011;11231;50.746;4.272;2023-06-19T08:01:50;14.10;;;8.88;;
22129;SDS011;11231;50.746;4.272;2023-06-19T08:04:15;15.68;;;8.70;;
22129;SDS011;11231;50.746;4.272;2023-06-19T08:06:41;13.70;;;7.55;;
22129;SDS011;11231;50.746;4.272;2023-06-19T08:09:07;15.75;;;7.82;;
22129;SDS011;11231;50.746;4.272;2023-06-19T08:11:32;16.67;;;8.50;;
22129;SDS011;11231;50.746;4.272;2023-06-19T08:14:00;17.20;;;8.60;;
22129;SDS011;11231;50.746;4.272;2023-06-19T08:16:26;14.80;;;8.90;;
22129;SDS011;11231;50.746;4.272;2023-06-19T08:18:52;14.60;;;8.93;;
22129;SDS011;11231;50.746;4.272;2023-06-19T08:21:17;16.35;;;10.30;;
22129;SDS011;11231;50.746;4.272;2023-06-19T08:23:45;15.93;;;9.48;;
22129;SDS011;11231;50.746;4.272;2023-06-19T08:26:11;14.18;;;9.60;;
22129;SDS011;11231;50.746;4.272;2023-06-19T08:28:37;16.63;;;9.30;;
22129;SDS011;11231;50.746;4.272;2023-06-19T08:31:03;13.80;;;7.78;;
22129;SDS011;11231;50.746;4.272;2023-06-19T08:33:28;14.98;;;8.63;;
22129;SDS011;11231;50.746;4.272;2023-06-19T08:35:55;12.65;;;8.60;;
22129;SDS011;11231;50.746;4.272;2023-06-19T08:38:20;16.50;;;8.55;;
22129;SDS011;11231;50.746;4.272;2023-06-19T08:40:46;11.95;;;7.78;;
22129;SDS011;11231;50.746;4.272;2023-06-19T08:43:12;13.05;;;7.32;;
22129;SDS011;11231;50.746;4.272;2023-06-19T08:45:39;12.25;;;7.13;;
22129;SDS011;11231;50.746;4.272;2023-06-19T08:48:05;12.90;;;6.97;;
22129;SDS011;11231;50.746;4.272;2023-06-19T08:50:38;10.60;;;6.72;;
22129;SDS011;11231;50.746;4.272;2023-06-19T08:53:03;14.27;;;8.57;;
22129;SDS011;11231;50.746;4.272;2023-06-19T08:55:29;14.65;;;7.68;;
22129;SDS011;11231;50.746;4.272;2023-06-19T08:57:55;13.20;;;7.10;;
22129;SDS011;11231;50.746;4.272;2023-06-19T09:00:24;15.68;;;8.13;;
22129;SDS011;11231;50.746;4.272;2023-06-19T09:02:51;14.02;;;8.07;;
22129;SDS011;11231;50.746;4.272;2023-06-19T09:05:23;13.57;;;7.90;;
22129;SDS011;11231;50.746;4.272;2023-06-19T09:07:54;14.57;;;7.75;;
22129;SDS011;11231;50.746;4.272;2023-06-19T09:10:21;13.25;;;7.78;;
22129;SDS011;11231;50.746;4.272;2023-06-19T09:13:02;14.15;;;8.05;;
22129;SDS011;11231;50.746;4.272;2023-06-19T09:15:32;12.35;;;7.55;;
22129;SDS011;11231;50.746;4.272;2023-06-19T09:18:11;16.48;;;8.43;;
22129;SDS011;11231;50.746;4.272;2023-06-19T09:20:39;15.48;;;8.90;;
22129;SDS011;11231;50.746;4.272;2023-06-19T09:23:14;13.25;;;8.60;;
22129;SDS011;11231;50.746;4.272;2023-06-19T09:25:49;17.52;;;10.10;;
22129;SDS011;11231;50.746;4.272;2023-06-19T09:28:17;16.20;;;9.35;;
22129;SDS011;11231;50.746;4.272;2023-06-19T09:33:31;13.05;;;9.00;;
22129;SDS011;11231;50.746;4.272;2023-06-19T09:35:58;15.02;;;9.60;;
22129;SDS011;11231;50.746;4.272;2023-06-19T09:38:26;15.68;;;10.05;;
22129;SDS011;11231;50.746;4.272;2023-06-19T09:40:53;16.02;;;9.10;;
22129;SDS011;11231;50.746;4.272;2023-06-19T09:45:49;16.80;;;9.93;;
22129;SDS011;11231;50.746;4.272;2023-06-19T09:48:18;15.73;;;10.10;;
22129;SDS011;11231;50.746;4.272;2023-06-19T09:50:52;16.17;;;9.32;;
22129;SDS011;11231;50.746;4.272;2023-06-19T09:53:22;20.00;;;10.60;;
22129;SDS011;11231;50.746;4.272;2023-06-19T09:55:49;17.75;;;9.35;;
22129;SDS011;11231;50.746;4.272;2023-06-19T09:58:19;18.88;;;9.65;;
22129;SDS011;11231;50.746;4.272;2023-06-19T10:00:46;15.18;;;9.02;;
22129;SDS011;11231;50.746;4.272;2023-06-19T10:03:12;18.67;;;10.45;;
22129;SDS011;11231;50.746;4.272;2023-06-19T10:05:39;16.00;;;9.27;;
22129;SDS011;11231;50.746;4.272;2023-06-19T10:08:05;15.57;;;8.93;;
22129;SDS011;11231;50.746;4.272;2023-06-19T10:10:31;16.80;;;9.10;;
22129;SDS011;11231;50.746;4.272;2023-06-19T10:12:59;16.00;;;8.85;;
22129;SDS011;11231;50.746;4.272;2023-06-19T10:15:39;19.75;;;8.25;;
22129;SDS011;11231;50.746;4.272;2023-06-19T10:18:13;18.00;;;9.27;;
22129;SDS011;11231;50.746;4.272;2023-06-19T10:20:43;15.48;;;9.93;;
22129;SDS011;11231;50.746;4.272;2023-06-19T10:23:18;13.30;;;8.77;;
22129;SDS011;11231;50.746;4.272;2023-06-19T10:28:24;18.70;;;11.65;;
22129;SDS011;11231;50.746;4.272;2023-06-19T10:31:07;17.58;;;9.98;;
22129;SDS011;11231;50.746;4.272;2023-06-19T10:33:34;16.15;;;9.63;;
22129;SDS011;11231;50.746;4.272;2023-06-19T10:36:18;17.10;;;9.50;;
22129;SDS011;11231;50.746;4.272;2023-06-19T10:38:45;14.93;;;8.73;;
22129;SDS011;11231;50.746;4.272;2023-06-19T10:41:17;15.20;;;8.55;;
22129;SDS011;11231;50.746;4.272;2023-06-19T10:46:33;13.65;;;7.70;;
22129;SDS011;11231;50.746;4.272;2023-06-19T10:49:03;14.10;;;7.90;;
22129;SDS011;11231;50.746;4.272;2023-06-19T10:51:31;12.70;;;6.68;;
22129;SDS011;11231;50.746;4.272;2023-06-19T10:53:59;11.02;;;6.35;;
22129;SDS011;11231;50.746;4.272;2023-06-19T10:56:25;10.20;;;5.70;;
22129;SDS011;11231;50.746;4.272;2023-06-19T10:59:00;13.57;;;6.20;;
22129;SDS011;11231;50.746;4.272;2023-06-19T11:04:01;12.02;;;5.63;;
22129;SDS011;11231;50.746;4.272;2023-06-19T11:06:28;10.48;;;5.28;;
22129;SDS011;11231;50.746;4.272;2023-06-19T11:08:57;10.88;;;5.55;;
22129;SDS011;11231;50.746;4.272;2023-06-19T11:11:22;12.10;;;5.70;;
22129;SDS011;11231;50.746;4.272;2023-06-19T11:13:48;11.90;;;6.05;;
22129;SDS011;11231;50.746;4.272;2023-06-19T11:16:14;10.45;;;5.97;;
22129;SDS011;11231;50.746;4.272;2023-06-19T11:18:40;11.60;;;5.45;;
22129;SDS011;11231;50.746;4.272;2023-06-19T11:21:05;12.25;;;5.90;;
22129;SDS011;11231;50.746;4.272;2023-06-19T11:23:31;10.73;;;6.13;;
22129;SDS011;11231;50.746;4.272;2023-06-19T11:26:05;14.45;;;6.80;;
22129;SDS011;11231;50.746;4.272;2023-06-19T11:28:32;17.85;;;7.40;;
22129;SDS011;11231;50.746;4.272;2023-06-19T11:30:59;10.10;;;5.55;;
22129;SDS011;11231;50.746;4.272;2023-06-19T11:33:28;9.85;;;5.75;;
22129;SDS011;11231;50.746;4.272;2023-06-19T11:35:58;12.75;;;6.20;;
22129;SDS011;11231;50.746;4.272;2023-06-19T11:38:25;9.93;;;5.80;;
22129;SDS011;11231;50.746;4.272;2023-06-19T11:40:52;11.18;;;6.05;;
22129;SDS011;11231;50.746;4.272;2023-06-19T11:43:30;13.38;;;6.15;;
22129;SDS011;11231;50.746;4.272;2023-06-19T11:46:04;12.23;;;6.10;;
22129;SDS011;11231;50.746;4.272;2023-06-19T11:48:31;8.77;;;5.43;;
22129;SDS011;11231;50.746;4.272;2023-06-19T11:50:57;8.88;;;5.38;;
22129;SDS011;11231;50.746;4.272;2023-06-19T11:53:24;8.05;;;5.18;;
22129;SDS011;11231;50.746;4.272;2023-06-19T11:55:50;9.98;;;5.18;;
22129;SDS011;11231;50.746;4.272;2023-06-19T11:58:17;10.48;;;5.28;;
22129;SDS011;11231;50.746;4.272;2023-06-19T12:00:45;10.68;;;5.35;;
22129;SDS011;11231;50.746;4.272;2023-06-19T12:03:11;9.82;;;5.68;;
22129;SDS011;11231;50.746;4.272;2023-06-19T12:05:37;11.27;;;5.47;;
22129;SDS011;11231;50.746;4.272;2023-06-19T12:08:03;11.52;;;5.80;;
22129;SDS011;11231;50.746;4.272;2023-06-19T12:10:29;10.35;;;5.55;;
22129;SDS011;11231;50.746;4.272;2023-06-19T12:12:55;12.73;;;6.22;;
22129;SDS011;11231;50.746;4.272;2023-06-19T12:15:21;12.32;;;5.97;;
22129;SDS011;11231;50.746;4.272;2023-06-19T12:17:47;11.15;;;5.72;;
22129;SDS011;11231;50.746;4.272;2023-06-19T12:20:13;10.15;;;5.50;;
22129;SDS011;11231;50.746;4.272;2023-06-19T12:22:39;11.48;;;5.68;;
22129;SDS011;11231;50.746;4.272;2023-06-19T12:25:05;11.02;;;5.20;;
22129;SDS011;11231;50.746;4.272;2023-06-19T12:27:31;14.65;;;5.95;;
22129;SDS011;11231;50.746;4.272;2023-06-19T12:29:57;13.85;;;5.43;;
22129;SDS011;11231;50.746;4.272;2023-06-19T12:32:22;27.90;;;7.20;;
22129;SDS011;11231;50.746;4.272;2023-06-19T12:34:49;11.80;;;5.30;;
22129;SDS011;11231;50.746;4.272;2023-06-19T12:37:19;13.27;;;5.43;;
22129;SDS011;11231;50.746;4.272;2023-06-19T12:39:46;11.73;;;5.55;;
22129;SDS011;11231;50.746;4.272;2023-06-19T12:42:12;10.75;;;5.78;;
22129;SDS011;11231;50.746;4.272;2023-06-19T12:44:42;9.50;;;5.05;;
22129;SDS011;11231;50.746;4.272;2023-06-19T12:47:09;11.93;;;5.32;;
22129;SDS011;11231;50.746;4.272;2023-06-19T12:49:36;14.85;;;6.00;;
22129;SDS011;11231;50.746;4.272;2023-06-19T12:52:02;10.30;;;5.53;;
22129;SDS011;11231;50.746;4.272;2023-06-19T12:54:28;12.45;;;4.90;;
22129;SDS011;11231;50.746;4.272;2023-06-19T12:56:54;9.00;;;5.00;;
22129;SDS011;11231;50.746;4.272;2023-06-19T12:59:20;9.98;;;5.07;;
22129;SDS011;11231;50.746;4.272;2023-06-19T13:01:45;11.68;;;5.43;;
22129;SDS011;11231;50.746;4.272;2023-06-19T13:04:12;9.18;;;4.80;;
22129;SDS011;11231;50.746;4.272;2023-06-19T13:06:40;11.43;;;4.82;;
22129;SDS011;11231;50.746;4.272;2023-06-19T13:09:05;10.65;;;4.75;;
22129;SDS011;11231;50.746;4.272;2023-06-19T13:11:32;11.00;;;5.53;;
22129;SDS011;11231;50.746;4.272;2023-06-19T13:14:01;9.90;;;5.05;;
22129;SDS011;11231;50.746;4.272;2023-06-19T13:16:27;12.38;;;5.32;;
22129;SDS011;11231;50.746;4.272;2023-06-19T13:18:52;9.55;;;5.03;;
22129;SDS011;11231;50.746;4.272;2023-06-19T13:21:18;12.05;;;5.22;;
22129;SDS011;11231;50.746;4.272;2023-06-19T13:23:44;9.98;;;4.90;;
22129;SDS011;11231;50.746;4.272;2023-06-19T13:26:10;9.15;;;5.53;;
22129;SDS011;11231;50.746;4.272;2023-06-19T13:28:36;9.68;;;5.68;;
22129;SDS011;11231;50.746;4.272;2023-06-19T13:31:02;13.30;;;5.72;;
22129;SDS011;11231;50.746;4.272;2023-06-19T13:33:28;9.77;;;5.57;;
22129;SDS011;11231;50.746;4.272;2023-06-19T13:35:54;10.88;;;5.30;;
22129;SDS011;11231;50.746;4.272;2023-06-19T13:38:20;9.05;;;5.07;;
22129;SDS011;11231;50.746;4.272;2023-06-19T13:40:46;9.68;;;4.60;;
22129;SDS011;11231;50.746;4.272;2023-06-19T13:43:13;11.45;;;4.75;;
22129;SDS011;11231;50.746;4.272;2023-06-19T13:45:39;11.32;;;5.47;;
22129;SDS011;11231;50.746;4.272;2023-06-19T13:48:05;10.65;;;4.75;;
22129;SDS011;11231;50.746;4.272;2023-06-19T13:50:31;7.80;;;4.30;;
22129;SDS011;11231;50.746;4.272;2023-06-19T13:52:58;7.80;;;4.90;;
22129;SDS011;11231;50.746;4.272;2023-06-19T13:55:24;9.48;;;5.00;;
22129;SDS011;11231;50.746;4.272;2023-06-19T13:57:50;10.25;;;5.05;;
22129;SDS011;11231;50.746;4.272;2023-06-19T14:00:16;10.25;;;4.50;;
22129;SDS011;11231;50.746;4.272;2023-06-19T14:02:41;11.95;;;5.25;;
22129;SDS011;11231;50.746;4.272;2023-06-19T14:05:08;8.40;;;4.45;;
22129;SDS011;11231;50.746;4.272;2023-06-19T14:07:34;8.63;;;4.80;;
22129;SDS011;11231;50.746;4.272;2023-06-19T14:10:01;10.82;;;4.38;;
22129;SDS011;11231;50.746;4.272;2023-06-19T14:12:28;7.10;;;4.18;;
22129;SDS011;11231;50.746;4.272;2023-06-19T14:14:53;9.10;;;5.00;;
22129;SDS011;11231;50.746;4.272;2023-06-19T14:17:20;7.10;;;4.03;;
22129;SDS011;11231;50.746;4.272;2023-06-19T14:19:49;9.43;;;4.22;;
22129;SDS011;11231;50.746;4.272;2023-06-19T14:22:15;8.73;;;4.13;;
22129;SDS011;11231;50.746;4.272;2023-06-19T14:24:42;10.43;;;4.20;;
22129;SDS011;11231;50.746;4.272;2023-06-19T14:27:08;8.25;;;4.18;;
22129;SDS011;11231;50.746;4.272;2023-06-19T14:29:33;9.50;;;4.20;;
22129;SDS011;11231;50.746;4.272;2023-06-19T14:31:59;10.13;;;4.78;;
22129;SDS011;11231;50.746;4.272;2023-06-19T14:34:25;8.00;;;4.38;;
22129;SDS011;11231;50.746;4.272;2023-06-19T14:36:51;7.03;;;3.67;;
22129;SDS011;11231;50.746;4.272;2023-06-19T14:39:17;8.00;;;3.30;;
22129;SDS011;11231;50.746;4.272;2023-06-19T14:41:42;7.55;;;3.45;;
22129;SDS011;11231;50.746;4.272;2023-06-19T14:44:08;6.65;;;3.17;;
22129;SDS011;11231;50.746;4.272;2023-06-19T14:46:36;6.65;;;3.83;;
22129;SDS011;11231;50.746;4.272;2023-06-19T14:49:09;9.60;;;3.88;;
22129;SDS011;11231;50.746;4.272;2023-06-19T14:51:37;6.75;;;3.80;;
22129;SDS011;11231;50.746;4.272;2023-06-19T14:54:03;7.20;;;3.50;;